Vernon, Colorado
Current Conditions -  °F | °C
As of 5:15 AM on Monday 20 Oct 2014 (Local Time) from K2V5 Reporting Station
Clear Clear  
Wind Chill: 34°   Ceiling: Unl
Heat Index: 38°   Visibility: 10mi
Dew Point: 37°   Wind: 6mph
Humidity: 94%   Direction: 250°WSW
Pressure: 30.12"   Gusts: NA
Location:  39.95°N, 102.32°W
Report Text: K2V5 201115Z AUTO 25005KT 10SM CLR 03/03 A3012 RMK AO2 T00340025
Loading
Personal Weather Stations






























Interactive Weather Map
Tropical Storm Tracking
New forecast layout! Learn more

10-Day Weather Forecast

Advertisements
Track Severe Weather on mobile